createdAt,value
2022-09-10T00:01:33.321Z,22.77
2022-09-10T00:04:02.897Z,17.90
2022-09-10T00:06:35.259Z,17.77
2022-09-10T00:09:03.590Z,17.55
2022-09-10T00:11:32.341Z,24.73
2022-09-10T00:14:01.294Z,19.88
2022-09-10T00:16:30.951Z,22.35
2022-09-10T00:19:00.140Z,29.92
2022-09-10T00:21:30.028Z,14.02
2022-09-10T00:24:00.016Z,16.67
2022-09-10T00:26:30.541Z,17.80
2022-09-10T00:29:00.101Z,37.83
2022-09-10T00:31:30.005Z,19.63
2022-09-10T00:34:00.202Z,31.50
2022-09-10T00:36:30.441Z,24.38
2022-09-10T00:39:03.500Z,25.08
2022-09-10T00:41:32.180Z,21.17
2022-09-10T00:44:02.729Z,23.98
2022-09-10T00:46:38.097Z,12.43
2022-09-10T00:49:15.126Z,24.00
2022-09-10T00:51:44.834Z,39.60
2022-09-10T00:54:17.234Z,37.83
2022-09-10T00:56:46.219Z,34.85
2022-09-10T00:59:18.860Z,31.17
2022-09-10T01:01:49.203Z,32.70
2022-09-10T01:04:17.842Z,20.85
2022-09-10T01:06:47.428Z,20.08
2022-09-10T01:09:17.703Z,36.22
2022-09-10T01:12:04.471Z,12.75
2022-09-10T01:15:00.110Z,27.95
2022-09-10T01:17:34.989Z,12.07
2022-09-10T01:20:46.575Z,22.17
2022-09-10T01:23:52.462Z,23.67
2022-09-10T01:26:36.469Z,28.23
2022-09-10T01:29:13.848Z,16.80
2022-09-10T01:31:51.516Z,16.17
2022-09-10T01:34:24.833Z,23.05
2022-09-10T01:36:59.177Z,24.80
2022-09-10T01:39:28.319Z,22.40
2022-09-10T01:41:58.826Z,24.08
2022-09-10T01:44:46.180Z,20.75
2022-09-10T01:47:28.531Z,16.70
2022-09-10T01:50:11.401Z,44.80
2022-09-10T01:52:49.324Z,18.40
2022-09-10T01:55:31.718Z,20.85
2022-09-10T01:58:05.287Z,10.77
2022-09-10T02:00:47.733Z,42.70
2022-09-10T02:03:19.429Z,24.77
2022-09-10T02:05:53.868Z,15.25
2022-09-10T02:08:25.430Z,18.60
2022-09-10T02:10:56.923Z,34.60
2022-09-10T02:13:29.936Z,31.63
2022-09-10T02:16:18.578Z,18.02
2022-09-10T02:18:49.724Z,29.08
2022-09-10T02:21:19.659Z,20.05
2022-09-10T02:23:51.780Z,19.88
2022-09-10T02:26:20.380Z,30.80
2022-09-10T02:28:49.672Z,21.33
2022-09-10T02:31:19.755Z,23.05
2022-09-10T02:33:48.678Z,25.55
2022-09-10T02:36:17.456Z,21.35
2022-09-10T02:38:45.634Z,18.77
2022-09-10T02:41:15.488Z,28.20
2022-09-10T02:43:46.066Z,15.88
2022-09-10T02:46:15.076Z,14.15
2022-09-10T02:48:45.725Z,22.58
2022-09-10T02:51:14.680Z,14.52
2022-09-10T02:53:43.345Z,22.30
2022-09-10T02:56:12.396Z,30.48
2022-09-10T02:58:40.838Z,24.15
2022-09-10T03:01:10.566Z,19.67
2022-09-10T03:03:40.159Z,28.25
2022-09-10T03:06:10.623Z,20.52
2022-09-10T03:08:39.605Z,19.27
2022-09-10T03:11:08.120Z,25.25
2022-09-10T03:13:36.611Z,19.20
2022-09-10T03:16:05.290Z,17.70
2022-09-10T03:18:35.365Z,26.60
2022-09-10T03:21:14.833Z,20.33
2022-09-10T03:23:44.904Z,20.92
2022-09-10T03:26:15.142Z,19.63
2022-09-10T03:28:44.594Z,16.90
2022-09-10T03:31:15.713Z,16.67
2022-09-10T03:33:47.975Z,16.73
2022-09-10T03:36:18.574Z,18.88
2022-09-10T03:38:49.065Z,39.13
2022-09-10T03:41:17.376Z,16.23
2022-09-10T03:43:46.337Z,15.10
2022-09-10T03:46:14.612Z,18.98
2022-09-10T03:48:45.244Z,29.10
2022-09-10T03:51:13.560Z,31.20
2022-09-10T03:53:43.675Z,30.88
2022-09-10T03:56:12.291Z,28.58
2022-09-10T03:58:41.875Z,30.45
2022-09-10T04:01:11.478Z,27.52
2022-09-10T04:03:43.886Z,25.60
2022-09-10T04:06:12.808Z,22.65
2022-09-10T04:08:44.362Z,25.50
2022-09-10T04:11:15.413Z,27.15
2022-09-10T04:13:44.590Z,30.35
2022-09-10T04:16:14.101Z,39.38
2022-09-10T04:18:43.117Z,32.45
2022-09-10T04:21:11.869Z,36.10
2022-09-10T04:23:44.018Z,36.03
2022-09-10T04:26:14.550Z,32.95
2022-09-10T04:28:43.251Z,33.45
2022-09-10T04:31:12.256Z,16.80
2022-09-10T04:33:40.707Z,36.30
2022-09-10T04:36:09.311Z,20.13
2022-09-10T04:38:43.464Z,18.13
2022-09-10T04:41:15.514Z,13.60
2022-09-10T04:43:44.825Z,16.17
2022-09-10T04:46:13.489Z,20.67
2022-09-10T04:48:43.819Z,8.65
2022-09-10T04:51:18.087Z,17.77
2022-09-10T04:53:50.422Z,27.20
2022-09-10T04:56:20.020Z,19.98
2022-09-10T04:58:48.688Z,17.25
2022-09-10T05:01:17.223Z,23.67
2022-09-10T05:03:46.916Z,17.77
2022-09-10T05:06:16.185Z,23.15
2022-09-10T05:08:47.439Z,40.30
2022-09-10T05:11:19.625Z,27.58
2022-09-10T05:13:48.915Z,32.55
2022-09-10T05:16:22.007Z,44.33
2022-09-10T05:18:50.495Z,32.47
2022-09-10T05:21:19.724Z,37.55
2022-09-10T05:23:48.107Z,34.90
2022-09-10T05:26:17.955Z,54.45
2022-09-10T05:28:46.208Z,43.20
2022-09-10T05:31:17.606Z,33.70
2022-09-10T05:33:47.076Z,37.15
2022-09-10T05:36:15.734Z,53.33
2022-09-10T05:38:46.347Z,37.90
2022-09-10T05:41:17.378Z,43.17
2022-09-10T05:43:48.877Z,45.42
2022-09-10T05:46:17.370Z,44.58
2022-09-10T05:48:49.484Z,40.75
2022-09-10T05:51:19.734Z,44.88
2022-09-10T05:53:50.069Z,39.22
2022-09-10T05:56:21.535Z,41.67
2022-09-10T05:58:49.963Z,55.83
2022-09-10T06:01:19.489Z,55.00
2022-09-10T06:03:50.989Z,61.85
2022-09-10T06:06:19.594Z,53.92
2022-09-10T06:08:59.664Z,50.35
2022-09-10T06:11:41.855Z,38.08
2022-09-10T06:14:11.104Z,42.20
2022-09-10T06:16:39.489Z,50.22
2022-09-10T06:19:08.986Z,66.50
2022-09-10T06:21:39.376Z,63.92
2022-09-10T06:24:07.743Z,56.13
2022-09-10T06:26:38.821Z,64.25
2022-09-10T06:29:13.512Z,58.15
2022-09-10T06:31:43.054Z,63.78
2022-09-10T06:34:14.395Z,67.60
2022-09-10T06:36:43.660Z,70.45
2022-09-10T06:39:12.999Z,65.57
2022-09-10T06:41:49.916Z,57.25
2022-09-10T06:44:39.382Z,66.03
2022-09-10T06:48:06.549Z,71.07
2022-09-10T06:50:07.096Z,57.70
2022-09-10T06:52:39.286Z,64.85
2022-09-10T06:55:11.544Z,67.30
2022-09-10T06:57:42.943Z,60.38
2022-09-10T07:00:15.444Z,71.60
2022-09-10T07:02:47.368Z,63.88
2022-09-10T07:05:16.692Z,48.00
2022-09-10T07:07:44.996Z,63.90
2022-09-10T07:10:15.627Z,75.65
2022-09-10T07:12:44.787Z,76.10
2022-09-10T07:15:15.032Z,71.72
2022-09-10T07:17:43.468Z,84.72
2022-09-10T07:20:13.096Z,74.32
2022-09-10T07:22:46.356Z,87.38
2022-09-10T07:25:16.455Z,89.03
2022-09-10T07:27:56.085Z,84.57
2022-09-10T07:30:27.289Z,66.47
2022-09-10T07:32:57.153Z,65.85
2022-09-10T07:35:28.505Z,67.95
2022-09-10T07:37:58.080Z,67.28
2022-09-10T07:40:28.250Z,67.85
2022-09-10T07:42:59.094Z,69.55
2022-09-10T07:45:30.256Z,73.55
2022-09-10T07:47:59.556Z,64.25
2022-09-10T07:50:28.798Z,62.20
2022-09-10T07:52:57.150Z,72.00
2022-09-10T07:55:27.199Z,59.42
2022-09-10T07:57:59.556Z,81.10
2022-09-10T08:00:31.085Z,40.88
2022-09-10T08:03:04.153Z,38.72
2022-09-10T08:05:32.842Z,39.60
2022-09-10T08:08:03.203Z,40.92
2022-09-10T08:10:31.435Z,48.97
2022-09-10T08:13:00.401Z,36.85
2022-09-10T08:15:29.947Z,36.45
2022-09-10T08:18:00.814Z,29.80
2022-09-10T08:20:29.509Z,33.35
2022-09-10T08:22:58.324Z,33.60
2022-09-10T08:25:27.597Z,42.22
2022-09-10T08:27:58.504Z,33.65
2022-09-10T08:30:28.834Z,35.95
2022-09-10T08:32:58.672Z,31.48
2022-09-10T08:35:27.553Z,33.83
2022-09-10T08:37:55.807Z,45.28
2022-09-10T08:40:24.059Z,24.48
2022-09-10T08:42:53.625Z,39.50
2022-09-10T08:45:28.482Z,38.08
2022-09-10T08:48:06.618Z,24.15
2022-09-10T08:50:42.179Z,36.33
2022-09-10T08:53:25.858Z,27.08
2022-09-10T08:55:57.907Z,29.52
2022-09-10T08:58:33.734Z,37.83
2022-09-10T09:01:05.418Z,22.67
2022-09-10T09:03:41.141Z,24.17
2022-09-10T09:06:21.875Z,25.00
2022-09-10T09:08:52.171Z,23.92
2022-09-10T09:11:34.610Z,34.97
2022-09-10T09:14:22.562Z,28.88
2022-09-10T09:17:27.431Z,31.17
2022-09-10T09:20:06.001Z,34.65
2022-09-10T09:22:46.831Z,32.38
2022-09-10T09:25:24.444Z,33.88
2022-09-10T09:27:56.246Z,36.10
2022-09-10T09:30:33.175Z,41.50
2022-09-10T09:33:13.890Z,45.45
2022-09-10T09:35:49.700Z,35.65
2022-09-10T09:38:23.788Z,39.92
2022-09-10T09:40:57.706Z,45.08
2022-09-10T09:43:38.934Z,44.17
2022-09-10T09:46:15.079Z,42.92
2022-09-10T09:48:46.383Z,29.90
2022-09-10T09:51:21.025Z,34.15
2022-09-10T09:54:06.158Z,37.35
2022-09-10T09:56:45.581Z,30.98
2022-09-10T09:59:26.637Z,34.88
2022-09-10T10:01:59.913Z,35.25
2022-09-10T10:04:31.211Z,31.70
2022-09-10T10:07:02.448Z,29.50
2022-09-10T10:09:32.795Z,12.95
2022-09-10T10:12:04.474Z,25.70
2022-09-10T10:14:39.463Z,29.25
2022-09-10T10:17:36.825Z,26.15
2022-09-10T10:20:09.113Z,17.58
2022-09-10T10:22:40.572Z,25.40
2022-09-10T10:25:41.489Z,27.05
2022-09-10T10:28:20.253Z,21.63
2022-09-10T10:30:53.065Z,21.25
2022-09-10T10:33:29.340Z,29.52
2022-09-10T10:36:08.766Z,46.75
2022-09-10T10:38:41.394Z,24.77
2022-09-10T10:41:37.633Z,25.65
2022-09-10T10:44:27.879Z,22.95
2022-09-10T10:47:11.272Z,20.13
2022-09-10T10:49:52.184Z,24.10
2022-09-10T10:52:27.219Z,17.27
2022-09-10T10:55:11.196Z,19.45
2022-09-10T10:57:56.483Z,22.02
2022-09-10T11:00:25.749Z,23.40
2022-09-10T11:03:01.807Z,25.00
2022-09-10T11:05:33.429Z,25.02
2022-09-10T11:08:06.501Z,18.65
2022-09-10T11:10:43.455Z,16.98
2022-09-10T11:13:18.198Z,14.88
2022-09-10T11:15:52.376Z,12.73
2022-09-10T11:18:27.289Z,21.52
2022-09-10T11:21:03.153Z,18.10
2022-09-10T11:23:35.968Z,17.88
2022-09-10T11:26:12.414Z,20.73
2022-09-10T11:28:48.404Z,22.77
2022-09-10T11:31:25.166Z,25.80
2022-09-10T11:34:00.489Z,14.68
2022-09-10T11:36:33.420Z,29.58
2022-09-10T11:39:12.022Z,22.05
2022-09-10T11:41:43.791Z,17.55
2022-09-10T11:44:37.995Z,24.95
2022-09-10T11:47:14.392Z,22.70
2022-09-10T11:49:48.350Z,18.40
2022-09-10T11:52:18.465Z,19.58
2022-09-10T11:54:47.590Z,25.52
2022-09-10T11:57:26.562Z,19.05
2022-09-10T12:00:08.395Z,16.65
2022-09-10T12:03:13.519Z,12.98
2022-09-10T12:05:55.365Z,18.92
2022-09-10T12:08:35.520Z,21.20
2022-09-10T12:11:14.053Z,15.57
2022-09-10T12:13:45.649Z,15.00
2022-09-10T12:16:22.129Z,31.00
2022-09-10T12:18:53.445Z,32.58
2022-09-10T12:21:32.399Z,25.58
2022-09-10T12:24:04.562Z,14.55
2022-09-10T12:26:42.295Z,21.45
2022-09-10T12:29:29.629Z,34.47
2022-09-10T12:32:28.620Z,24.00
2022-09-10T12:35:45.050Z,21.63
2022-09-10T12:38:48.845Z,12.70
2022-09-10T12:41:55.080Z,21.60
2022-09-10T12:44:47.935Z,32.33
2022-09-10T12:47:46.831Z,19.30
2022-09-10T12:50:46.503Z,11.80
2022-09-10T12:54:00.127Z,19.65
2022-09-10T12:56:56.672Z,23.73
2022-09-10T12:59:54.678Z,17.52
2022-09-10T13:02:30.893Z,27.63
2022-09-10T13:05:02.860Z,16.65
2022-09-10T13:07:40.256Z,12.18
2022-09-10T13:10:21.950Z,18.13
2022-09-10T13:12:55.295Z,19.20
2022-09-10T13:15:27.861Z,26.45
2022-09-10T13:18:32.328Z,12.68
2022-09-10T13:21:20.760Z,5.75
2022-09-10T13:23:51.168Z,11.90
2022-09-10T13:26:48.388Z,12.63
2022-09-10T13:29:33.424Z,12.32
2022-09-10T13:32:06.356Z,9.20
2022-09-10T13:35:17.038Z,6.45
2022-09-10T13:38:10.131Z,11.23
2022-09-10T13:41:10.956Z,21.02
2022-09-10T13:43:53.114Z,14.73
2022-09-10T13:46:26.518Z,3.97
2022-09-10T13:49:01.397Z,2.95
2022-09-10T13:51:36.993Z,6.68
2022-09-10T13:54:10.029Z,2.90
2022-09-10T13:56:43.101Z,6.78
2022-09-10T13:59:20.867Z,4.80
2022-09-10T14:01:50.420Z,8.73
2022-09-10T14:04:23.547Z,9.13
2022-09-10T14:06:55.607Z,4.90
2022-09-10T14:09:23.898Z,10.57
2022-09-10T14:11:52.574Z,31.67
2022-09-10T14:14:23.962Z,3.90
2022-09-10T14:16:54.848Z,7.18
2022-09-10T14:19:27.154Z,17.00
2022-09-10T14:21:57.701Z,15.65
2022-09-10T14:24:31.304Z,20.52
2022-09-10T14:27:16.571Z,8.52
2022-09-10T14:29:46.646Z,9.85
2022-09-10T14:32:26.571Z,3.70
2022-09-10T14:34:55.354Z,17.38
2022-09-10T14:37:33.804Z,5.30
2022-09-10T14:40:15.318Z,7.75
2022-09-10T14:42:43.578Z,4.57
2022-09-10T14:45:40.317Z,11.43
2022-09-10T14:48:32.377Z,12.80
2022-09-10T14:51:19.279Z,26.13
2022-09-10T14:53:53.298Z,13.05
2022-09-10T14:56:28.246Z,38.70
2022-09-10T14:59:00.747Z,23.77
2022-09-10T15:01:29.938Z,25.02
2022-09-10T15:03:59.307Z,16.85
2022-09-10T15:06:27.887Z,14.20
2022-09-10T15:08:57.720Z,12.68
2022-09-10T15:11:28.680Z,14.93
2022-09-10T15:13:59.242Z,8.32
2022-09-10T15:16:27.556Z,38.13
2022-09-10T15:18:55.945Z,22.58
2022-09-10T15:21:25.658Z,17.67
2022-09-10T15:23:53.925Z,8.20
2022-09-10T15:26:23.409Z,16.38
2022-09-10T15:28:52.668Z,23.35
2022-09-10T15:31:21.008Z,14.85
2022-09-10T15:33:49.228Z,25.08
2022-09-10T15:36:18.071Z,34.30
2022-09-10T15:38:46.290Z,25.88
2022-09-10T15:41:15.884Z,14.95
2022-09-10T15:43:46.015Z,12.88
2022-09-10T15:46:16.921Z,12.43
2022-09-10T15:48:47.504Z,25.98
2022-09-10T15:51:21.336Z,16.77
2022-09-10T15:53:51.233Z,16.50
2022-09-10T15:56:21.428Z,29.77
2022-09-10T15:58:52.885Z,13.68
2022-09-10T16:01:21.623Z,17.17
2022-09-10T16:03:52.402Z,32.58
2022-09-10T16:06:21.053Z,23.50
2022-09-10T16:09:04.863Z,13.82
2022-09-10T16:11:36.262Z,12.02
2022-09-10T16:14:07.876Z,15.45
2022-09-10T16:16:37.294Z,18.58
2022-09-10T16:19:06.482Z,14.65
2022-09-10T16:21:37.205Z,14.52
2022-09-10T16:24:06.439Z,14.77
2022-09-10T16:26:36.913Z,15.52
2022-09-10T16:29:14.137Z,18.02
2022-09-10T16:31:45.433Z,24.00
2022-09-10T16:34:16.062Z,22.55
2022-09-10T16:36:45.013Z,24.63
2022-09-10T16:39:15.542Z,19.88
2022-09-10T16:41:45.256Z,19.88
2022-09-10T16:44:16.666Z,25.90
2022-09-10T16:46:44.934Z,24.63
2022-09-10T16:49:13.926Z,18.23
2022-09-10T16:51:43.167Z,21.48
2022-09-10T16:54:13.528Z,20.45
2022-09-10T16:56:43.718Z,18.40
2022-09-10T16:59:16.001Z,20.67
2022-09-10T17:01:47.827Z,13.85
2022-09-10T17:04:21.328Z,15.13
2022-09-10T17:06:51.143Z,21.17
2022-09-10T17:09:20.254Z,12.32
2022-09-10T17:11:48.597Z,13.05
2022-09-10T17:14:18.089Z,25.90
2022-09-10T17:16:47.997Z,14.75
2022-09-10T17:19:18.483Z,22.23
2022-09-10T17:21:51.081Z,28.55
2022-09-10T17:24:22.660Z,17.88
2022-09-10T17:26:52.370Z,17.65
2022-09-10T17:29:23.408Z,21.45
2022-09-10T17:31:52.601Z,25.95
2022-09-10T17:34:24.256Z,26.35
2022-09-10T17:36:53.299Z,25.02
2022-09-10T17:39:21.519Z,21.13
2022-09-10T17:41:50.210Z,30.13
2022-09-10T17:44:18.802Z,24.38
2022-09-10T17:46:48.270Z,18.40
2022-09-10T17:49:16.719Z,15.80
2022-09-10T17:51:46.195Z,19.65
2022-09-10T17:54:15.249Z,19.15
2022-09-10T17:56:43.445Z,17.25
2022-09-10T17:59:14.167Z,18.80
2022-09-10T18:01:42.911Z,16.98
2022-09-10T18:04:14.349Z,33.00
2022-09-10T18:06:43.700Z,45.08
2022-09-10T18:09:12.295Z,24.33
2022-09-10T18:11:41.727Z,26.75
2022-09-10T18:14:14.586Z,23.67
2022-09-10T18:16:42.751Z,21.15
2022-09-10T18:19:15.828Z,25.45
2022-09-10T18:21:45.462Z,29.98
2022-09-10T18:24:16.876Z,31.42
2022-09-10T18:26:46.531Z,34.50
2022-09-10T18:29:17.639Z,23.30
2022-09-10T18:31:47.777Z,27.00
2022-09-10T18:34:22.993Z,32.22
2022-09-10T18:36:54.625Z,20.85
2022-09-10T18:39:24.312Z,20.75
2022-09-10T18:41:53.294Z,24.13
2022-09-10T18:44:23.403Z,24.83
2022-09-10T18:46:53.732Z,32.67
2022-09-10T18:49:24.766Z,37.67
2022-09-10T18:51:55.363Z,24.27
2022-09-10T18:54:28.668Z,24.85
2022-09-10T18:56:57.987Z,21.30
2022-09-10T18:59:27.149Z,20.08
2022-09-10T19:01:55.933Z,25.80
2022-09-10T19:04:27.995Z,23.50
2022-09-10T19:06:57.618Z,29.33
2022-09-10T19:09:27.754Z,27.90
2022-09-10T19:11:57.598Z,28.02
2022-09-10T19:14:27.843Z,36.35
2022-09-10T19:16:57.335Z,34.58
2022-09-10T19:19:31.833Z,45.47
2022-09-10T19:22:03.596Z,22.08
2022-09-10T19:27:21.382Z,23.67
2022-09-10T19:29:50.315Z,31.02
2022-09-10T19:32:19.891Z,30.95
2022-09-10T19:34:52.009Z,29.92
2022-09-10T19:37:20.733Z,42.47
2022-09-10T19:39:49.098Z,30.70
2022-09-10T19:42:17.804Z,24.27
2022-09-10T19:44:46.213Z,24.50
2022-09-10T19:47:14.425Z,28.42
2022-09-10T19:49:43.172Z,20.40
2022-09-10T19:52:12.709Z,23.35
2022-09-10T19:54:41.070Z,32.42
2022-09-10T19:57:09.550Z,32.58
2022-09-10T19:59:38.138Z,30.77
2022-09-10T20:02:06.443Z,29.42
2022-09-10T20:04:36.510Z,29.42
2022-09-10T20:07:04.750Z,23.55
2022-09-10T20:09:39.205Z,33.47
2022-09-10T20:12:08.859Z,23.90
2022-09-10T20:14:38.051Z,26.30
2022-09-10T20:17:06.271Z,20.02
2022-09-10T20:19:35.372Z,28.63
2022-09-10T20:22:03.755Z,31.45
2022-09-10T20:24:32.225Z,25.92
2022-09-10T20:27:02.038Z,41.92
2022-09-10T20:29:32.925Z,27.98
2022-09-10T20:32:02.045Z,27.85
2022-09-10T20:34:31.336Z,25.17
2022-09-10T20:36:59.864Z,19.98
2022-09-10T20:39:28.349Z,17.98
2022-09-10T20:41:56.609Z,22.63
2022-09-10T20:44:26.855Z,10.50
2022-09-10T20:46:56.324Z,18.45
2022-09-10T20:49:25.601Z,14.82
2022-09-10T20:51:53.888Z,15.95
2022-09-10T20:54:22.554Z,16.98
2022-09-10T20:56:50.782Z,22.70
2022-09-10T20:59:20.857Z,13.30
2022-09-10T21:01:53.046Z,16.92
2022-09-10T21:04:21.943Z,24.55
2022-09-10T21:06:50.063Z,20.10
2022-09-10T21:09:18.667Z,12.75
2022-09-10T21:11:46.771Z,21.38
2022-09-10T21:14:15.185Z,10.77
2022-09-10T21:16:45.232Z,10.48
2022-09-10T21:19:16.380Z,14.55
2022-09-10T21:21:48.723Z,14.15
2022-09-10T21:24:18.701Z,14.40
2022-09-10T21:26:47.589Z,28.00
2022-09-10T21:29:17.407Z,29.83
2022-09-10T21:31:46.258Z,32.35
2022-09-10T21:34:17.343Z,35.92
2022-09-10T21:36:45.508Z,32.97
2022-09-10T21:39:15.717Z,34.63
2022-09-10T21:41:45.385Z,44.75
2022-09-10T21:44:15.489Z,36.08
2022-09-10T21:46:44.464Z,33.00
2022-09-10T21:49:13.491Z,31.60
2022-09-10T21:51:43.670Z,50.80
2022-09-10T21:54:15.164Z,59.70
2022-09-10T21:56:43.506Z,46.15
2022-09-10T21:59:12.923Z,40.10
2022-09-10T22:01:43.218Z,45.30
2022-09-10T22:04:12.681Z,46.65
2022-09-10T22:06:42.225Z,54.53
2022-09-10T22:09:14.237Z,46.55
2022-09-10T22:11:45.867Z,55.33
2022-09-10T22:14:17.253Z,52.83
2022-09-10T22:16:46.495Z,53.20
2022-09-10T22:19:17.768Z,53.05
2022-09-10T22:21:48.433Z,67.22
2022-09-10T22:24:18.715Z,51.13
2022-09-10T22:26:47.696Z,52.40
2022-09-10T22:29:18.677Z,57.38
2022-09-10T22:31:48.465Z,55.10
2022-09-10T22:34:18.377Z,52.58
2022-09-10T22:36:49.619Z,62.65
2022-09-10T22:39:20.198Z,61.63
2022-09-10T22:41:49.352Z,55.28
2022-09-10T22:44:19.192Z,47.05
2022-09-10T22:46:47.549Z,52.03
2022-09-10T22:49:17.785Z,53.63
2022-09-10T22:51:46.319Z,67.88
2022-09-10T22:54:16.610Z,68.97
2022-09-10T22:56:45.366Z,56.17
2022-09-10T22:59:14.785Z,61.25
2022-09-10T23:01:47.315Z,47.30
2022-09-10T23:04:16.330Z,53.55
2022-09-10T23:06:45.122Z,43.00
2022-09-10T23:09:16.420Z,49.78
2022-09-10T23:11:45.690Z,16.60
2022-09-10T23:14:17.832Z,47.53
2022-09-10T23:16:48.428Z,39.35
2022-09-10T23:19:20.126Z,51.13
2022-09-10T23:21:50.418Z,51.33
2022-09-10T23:24:24.248Z,41.00
2022-09-10T23:26:53.175Z,58.95
2022-09-10T23:29:22.585Z,59.17
2022-09-10T23:31:53.384Z,44.08
2022-09-10T23:34:23.014Z,45.00
2022-09-10T23:36:52.651Z,43.65
2022-09-10T23:39:24.292Z,27.55
2022-09-10T23:41:54.825Z,17.10
2022-09-10T23:44:23.048Z,11.73
2022-09-10T23:46:51.493Z,13.77
2022-09-10T23:49:19.810Z,14.25
2022-09-10T23:51:48.969Z,11.00
2022-09-10T23:54:17.214Z,15.00
2022-09-10T23:56:46.888Z,14.88
2022-09-10T23:59:15.496Z,51.33
